Tiempo atmosférico en la estación meteorológica de Don Benito, Badajoz (273 m.)



Fecha
DESCASC
Temp. máxima en grados centígrados (hora)
DESCASC
Temp. mínima en grados centígrados (hora)
DESCASC
Temp. media en grados centígrados
DESCASC
Racha de viento máxima en m/sg (hora)
DESCASC
Velocidad máxima media en intervalos de 10 minutos(hora)
DESCASC
Precipitaciones diarias en mm
DESCASC
Precipitaciones de 00:00 a 06:00 en mm
DESCASC
Precipitaciones de 06:00 a 12:00 en mm
DESCASC
Precipitaciones de 12:00 a 18:00 en mm
DESCASC
Precipitaciones de 18:00 a 24:00 en mm
DESCASC
20-09-2018 34.7 (17:00) 19.4 (07:40) 27.1 8.61 (20:00) 3.61 (18:30) 0 0 0 0 0
19-09-2018 34.9 (17:10) 18.2 (08:30) 26.6 4.72 (18:00) 2.22 (18:10) 0 0 0 0 0
18-09-2018 33.7 (16:40) 18.4 (06:50) 26.1 5.56 (05:10) 2.78 (05:10) 0 0 0 0 0
17-09-2018 33.4 (15:00) 19.3 (07:00) 26.4 14.44 (16:00) 7.78 (16:10) 0 0 0 0 0
16-09-2018 33.4 (16:30) 20.2 (00:00) 26.8 8.61 (16:30) 2.78 (16:40) 0 0 0 0 0
15-09-2018 33 (16:30) 18.2 (00:00) 25.6 10.28 (00:10) 4.72 (00:10) 0 0 0 0 0
14-09-2018 34.8 (18:20) 20.2 (00:00) 27.5 14.72 (19:30) 7.78 (19:30) 0 0 0 0 0
13-09-2018 35.7 (16:40) 20.3 (00:00) 28 5.56 (22:40) 2.5 (23:40) 0 0 0 0 0
12-09-2018 34.8 (18:10) 20.6 (00:00) 27.7 5.28 (15:40) 2.22 (06:00) 0 0 0 0 0
11-09-2018 32.6 (17:10) 19.6 (00:00) 26.1 7.78 (10:50) 3.33 (11:20) 0 0 0 0 0
10-09-2018 32.8 (16:40) 16.7 (00:00) 24.8 7.78 (18:20) 2.78 (20:20) 0.2 0.2 0 0 0
09-09-2018 29.2 (17:40) 18.1 (00:00) 23.7 9.72 (18:00) 3.06 (18:40) 0 0 0 0 0
08-09-2018 30 (15:40) 18.9 (00:00) 24.4 8.89 (20:30) 5 (20:30) 0.6 0 0 0.4 0.2
07-09-2018 34.6 (15:50) 15.6 (00:00) 25.1 9.44 (18:10) 4.72 (19:20) 0 0 0 0 0
06-09-2018 30.8 (17:10) 15.9 (00:00) 23.3 6.11 (17:50) 2.78 (10:30) 0 0 0 0 0
05-09-2018 29.1 (16:30) 18.6 (00:00) 23.9 7.78 (17:10) 3.33 (17:10) 0 0 0 0 0
04-09-2018 30.8 (16:20) 16.9 (00:00) 23.8 7.22 (02:40) 3.33 (02:40) 0 0 0 0 0
03-09-2018 31 (15:00) 21.8 (00:00) 26.4 8.33 (17:30) 3.06 (11:10) 0 0 0 0 0
02-09-2018 38.7 (15:50) 21.6 (00:00) 30.2 17.78 (17:50) 5.28 (17:50) 0 0 0 0 0
01-09-2018 38 (17:30) 21.7 (00:00) 29.9 8.61 (16:10) 2.78 (16:00) 0 0 0 0 0
31-08-2018 37.4 (17:30) 19.8 (00:00) 28.6 6.39 (16:50) 2.78 (15:30) 0 0 0 0 0
30-08-2018 35.4 (17:40) 17.2 (00:00) 26.3 5 (05:30) 2.78 (01:00) 0 0 0 0 0
29-08-2018 33.2 (19:00) 16.3 (00:00) 24.8 7.22 (03:10) 3.89 (01:20) 0 0 0 0 0
28-08-2018 34.3 (18:00) 21.7 (00:00) 28 9.17 (19:10) 3.33 (16:30) 0 0 0 0 0
27-08-2018 38.9 (18:50) 18.1 (00:00) 28.5 9.17 (18:10) 4.17 (19:00) 0 0 0 0 0
26-08-2018 37.2 (17:00) 17.6 (00:00) 27.4 7.5 (15:50) 3.33 (18:50) 0 0 0 0 0
25-08-2018 38.3 (17:50) 19.6 (00:00) 28.9 7.22 (18:30) 3.33 (17:10) 0 0 0 0 0
24-08-2018 38.6 (17:00) 20.8 (00:00) 29.7 5.28 (08:00) 2.78 (08:00) 0 0 0 0 0

Gráficas

Temp. máximas Temp. mínimas Temp. medias Precipitaciones Rachas de viento máximas Velocidades máximas media en intervalos de 10 minutos

Datos horarios

Fecha y hora oficial Temperatura (ºC) Velocidad del viento (km/h) Dirección del viento Racha (km/h) Dirección de racha Precipitación (mm) Presión (hPa) Tendencia (hPa) Humedad (%)
2018-09-22 23:00:00 26.7 2 Norte 5 Norte 0 988.8 0.8 40
2018-09-22 22:00:00 28.4 0 Calma 4 Nordeste 0 988.5 0.6 31
2018-09-22 21:00:00 30 0 Calma 8 Nordeste 0 988.2 0.3 28
2018-09-22 20:00:00 33.3 3 Norte 14 Norte 0 988 -0.3 24
2018-09-22 19:00:00 34.5 8 Norte 17 Norte 0 987.9 -0.9 20
2018-09-22 18:00:00 35.2 7 Norte 19 Noroeste 0 987.9 -1.4 19
2018-09-22 17:00:00 35.3 8 Norte 19 Norte 0 988.3 -1.5 20
2018-09-22 16:00:00 36.1 4 Nordeste 18 Este 0 988.8 -1.5 20
2018-09-22 15:00:00 35.3 5 Norte 17 Nordeste 0 989.3 -1.2 23
2018-09-22 14:00:00 33.8 5 Nordeste 15 Nordeste 0 989.8 -0.3 23
2018-09-22 13:00:00 31.3 3 Nordeste 8 Norte 0 990.3 0.5 29
2018-09-22 12:00:00 28.1 3 Norte 8 Nordeste 0 990.5 1.1 37
2018-09-22 11:00:00 25.5 2 Norte 5 Noroeste 0 990.1 1.4 42
2018-09-22 10:00:00 22.8 0 Calma 6 Sudeste 0 989.8 1.4 51
2018-09-22 09:00:00 19.1 0 Calma 3 Sur 0 989.4 1.4 66
2018-09-22 08:00:00 19 2 Sur 6 Sudoeste 0 988.7 1.1 65
2018-09-22 07:00:00 19.2 3 Sur 5 Sudeste 0 988.4 0.7 62
2018-09-22 06:00:00 19.9 0 Calma 4 Sudoeste 0 988 0.2 64
2018-09-22 05:00:00 20.5 0 Calma 4 Oeste 0 987.6 -0.2 61
2018-09-22 04:00:00 21.1 2 Sur 7 Sur 0 987.7 0.1 57
2018-09-22 03:00:00 22.1 3 Oeste 5 Noroeste 0 987.8 0.4 52
2018-09-22 02:00:00 22.7 2 Sudoeste 4 Sur 0 987.8 0.9 48
2018-09-22 01:00:00 23.6 0 Calma 4 Oeste 0 987.6 1.2 45
2018-09-22 00:00:00 24.4 0 Calma 5 Sudoeste 0 987.4 1.5 42
2018-09-21 23:00:00 25.6 3 Sudoeste 4 Sur 0 986.9 1.3 39
2018-09-21 22:00:00 26.9 0 Calma 6 Oeste 0 986.4 1.1 36
2018-09-21 21:00:00 28.8 4 Oeste 7 Oeste 0 985.9 0.6 32
2018-09-21 20:00:00 31 3 Oeste 14 Noroeste 0 985.6 0 28
2018-09-21 19:00:00 32.5 8 Noroeste 17 Noroeste 0 985.3 -0.7 25
2018-09-21 18:00:00 33.3 9 Noroeste 17 Noroeste 0 985.3 -1.3 22
2018-09-21 17:00:00 34.4 3 Sudeste 13 Noroeste 0 985.6 -1.9 21
2018-09-21 16:00:00 33.8 4 Noroeste 12 Sudoeste 0 986 -2 22
2018-09-21 15:00:00 32.6 5 Oeste 12 Sudoeste 0 986.6 -1.5 25
2018-09-21 14:00:00 30.3 4 Noroeste 13 Oeste 0 987.5 -0.5 28
2018-09-21 13:00:00 28.2 4 Noroeste 12 Oeste 0 988 0.7 32
2018-09-21 12:00:00 26.3 4 Oeste 11 Oeste 0 988.1 1.5 36
2018-09-21 11:00:00 23.3 5 Oeste 16 Oeste 0 988 1.9 48
2018-09-21 10:00:00 21.2 7 Oeste 14 Oeste 0 987.3 1.3 54
2018-09-21 09:00:00 18.6 7 Sudoeste 13 Sudoeste 0 986.6 0.9 63
2018-09-21 08:00:00 18.2 8 Sudoeste 16 Sudoeste 0 986.1 0.9 66
2018-09-21 07:00:00 18.7 7 Sudoeste 17 Oeste 0 986 0.5 64
2018-09-21 06:00:00 20 10 Oeste 18 Oeste 0 985.7 0.1 56
2018-09-21 05:00:00 20.5 9 Sudoeste 18 Sudoeste 0 985.2 -0.4 51
2018-09-21 04:00:00 20.9 8 Sudoeste 14 Sudoeste 0 985.5 0.1 51
2018-09-21 03:00:00 22 5 Sudoeste 10 Sudoeste 0 985.6 0.1 51
2018-09-21 02:00:00 22.8 7 Sudoeste 12 Sudoeste 0 985.6 0.2 52
2018-09-21 01:00:00 23.7 4 Sudoeste 12 Sudoeste 0 985.4 0.6 54
2018-09-21 00:00:00 24.5 5 Sudoeste 14 Sudoeste 0 985.5 1.1 50
2018-09-20 23:00:00 25.5 6 Oeste 19 Noroeste 0 985.4 0.6 41
2018-09-20 22:00:00 26 5 Sudeste 12 Sudeste 0 984.8 0.7 39
2018-09-20 21:00:00 27.7 5 Sudeste 25 Sur 0 984.4 0 34
2018-09-20 20:00:00 30.2 13 Sur 31 Sudeste 0 984.8 0.1 33
2018-09-20 19:00:00 33.1 5 Sudeste 29 Sudeste 0 984.1 -1.1 28
2018-09-20 18:00:00 33.1 5 Norte 17 Norte 0 984.4 -1.5 29
2018-09-20 17:00:00 34.6 5 Norte 18 Nordeste 0 984.7 -2.2 28
2018-09-20 16:00:00 33.6 3 Nordeste 16 Noroeste 0 985.2 -2.3 30
2018-09-20 15:00:00 32.9 7 Norte 15 Noroeste 0 985.9 -2 31
2018-09-20 14:00:00 31.9 6 Noroeste 15 Noroeste 0 986.9 -0.8 33
2018-09-20 13:00:00 30.4 4 Nordeste 9 Norte 0 987.5 0 38
2018-09-20 12:00:00 28.3 3 Noroeste 10 Noroeste 0 987.9 0.6 42
2018-09-20 11:00:00 25.9 3 Norte 7 Nordeste 0 987.7 0.9 45
2018-09-20 10:00:00 23 2 Nordeste 5 Norte 0 987.5 0.9 53
2018-09-20 09:00:00 20.1 3 Norte 5 Norte 0 987.3 0.7 65
2018-09-20 08:00:00 19.6 2 Nordeste 4 Sur 0 986.8 0.2 66
2018-09-20 07:00:00 19.7 0 Calma 9 Sur 0 986.6 0 65
2018-09-20 06:00:00 20.4 4 Sudoeste 9 Oeste 0 986.6 -0.3 60
2018-09-20 05:00:00 21.3 3 Noroeste 7 Noroeste 0 986.6 -0.4 58
2018-09-20 04:00:00 22 4 Sudoeste 7 Sudoeste 0 986.6 -0.6 52
2018-09-20 03:00:00 22.6 2 Sur 12 Sudeste 0 986.9 -0.2 50
2018-09-20 02:00:00 23 3 Sudoeste 6 Sudeste 0 987 -0.1 49
2018-09-20 01:00:00 23.6 2 Sur 5 Sur 0 987.2 0.6 50
2018-09-20 00:00:00 24.6 0 Calma 6 Oeste 0 987.1 0.9 46
2018-09-19 23:00:00 25.8 3 Oeste 5 Sur 0 987.1 0.9 41
2018-09-19 22:00:00 27.2 2 Sur 6 Sur 0 986.6 0.7 35
2018-09-19 21:00:00 28.8 0 Calma 6 Oeste 0 986.2 0.3 33
2018-09-19 20:00:00 31.8 2 Sudoeste 14 Noroeste 0 986.2 0 25
2018-09-19 19:00:00 33.1 6 Noroeste 15 Noroeste 0 985.9 -1 23
2018-09-19 18:00:00 34.5 4 Oeste 17 Sudoeste 0 985.9 -1.5 23
2018-09-19 17:00:00 34.5 3 Este 13 Norte 0 986.2 -1.7 23
2018-09-19 16:00:00 33.1 4 Noroeste 12 Norte 0 986.9 -1.6 28
2018-09-19 15:00:00 32.9 3 Este 12 Norte 0 987.4 -1.2 27
2018-09-19 14:00:00 31 3 Norte 9 Norte 0 987.9 -0.3 30
2018-09-19 13:00:00 29.8 2 Este 8 Norte 0 988.5 0.8 33
2018-09-19 12:00:00 27 3 Oeste 11 Sur 0 988.6 1.3 40
2018-09-19 11:00:00 25.8 0 Calma 5 Sudeste 0 988.2 1.4 44
2018-09-19 10:00:00 21.7 3 Oeste 6 Oeste 0 987.7 1.3 57
2018-09-19 09:00:00 18.6 0 Calma 6 Sudoeste 0 987.3 1.1 69
2018-09-19 08:00:00 18.7 4 Sudoeste 8 Sudoeste 0 986.8 0.9 68
2018-09-19 07:00:00 19 3 Sudoeste 7 Sudoeste 0 986.4 0.2 68
2018-09-19 06:00:00 19.6 2 Sur 9 Sur 0 986.2 -0.1 65
2018-09-19 05:00:00 20.2 4 Sur 8 Sur 0 985.9 -0.2 62
2018-09-19 04:00:00 20.7 4 Sur 9 Sur 0 986.2 0.4 59
2018-09-19 03:00:00 21.3 3 Sur 8 Sur 0 986.3 0.7 59
2018-09-19 02:00:00 21.7 2 Sur 6 Sudoeste 0 986.1 0.6 59
2018-09-19 01:00:00 22.6 3 Sudoeste 8 Sudoeste 0 985.8 1.2 57
2018-09-19 00:00:00 23.7 3 Sudoeste 8 Sudoeste 0 985.6 1.8 53
2018-09-18 23:00:00 25 4 Sudoeste 9 Sudoeste 0 985.5 2.2 48
2018-09-18 22:00:00 26.1 5 Sudoeste 12 Sudoeste 0 984.6 1.8 45
2018-09-18 21:00:00 28.1 7 Sudoeste 13 Sudoeste 0 983.8 1 40
2018-09-18 20:00:00 32 7 Sudoeste 19 Sudoeste 0 983.3 0.2 28
2018-09-18 19:00:00 32.8 6 Oeste 19 Oeste 0 982.8 -0.6 27
2018-09-18 18:00:00 32.9 7 Oeste 20 Oeste 0 982.8 -1.2 28
2018-09-18 17:00:00 32.8 6 Oeste 19 Noroeste 0 983.1 -1.5 29
2018-09-18 16:00:00 32.3 7 Oeste 18 Noroeste 0 983.4 -1.4 30
2018-09-18 15:00:00 31.4 4 Noroeste 15 Noroeste 0 984 -1.1 33
2018-09-18 14:00:00 31 4 Oeste 11 Noroeste 0 984.6 -0.5 38
2018-09-18 13:00:00 28.7 3 Oeste 9 Sudoeste 0 984.8 0.3 43
2018-09-18 12:00:00 26.8 4 Sur 8 Oeste 0 985.1 0.8 49
2018-09-18 11:00:00 23.3 3 Norte 10 Noroeste 0 985.1 1.3 65
2018-09-18 10:00:00 22.5 2 Este 8 Sudeste 0 984.5 1.1 67
2018-09-18 09:00:00 19.1 4 Sudeste 9 Sudeste 0 984.3 1.1 82
2018-09-18 08:00:00 19 4 Nordeste 7 Nordeste 0 983.8 0.8 83
2018-09-18 07:00:00 18.4 2 Norte 7 Sur 0 983.4 0.3 83
2018-09-18 06:00:00 19.7 4 Sudeste 20 Este 0 983.2 0 74
2018-09-18 05:00:00 20.5 8 Este 19 Este 0 983 -0.2 70
2018-09-18 04:00:00 20.4 3 Este 7 Este 0 983.1 -0.4 71
2018-09-18 03:00:00 21 3 Nordeste 11 Sudeste 0 983.2 -0.4 71
2018-09-18 02:00:00 20.9 4 Sudeste 9 Este 0 983.2 -0.4 72
2018-09-18 01:00:00 21.7 0 Calma 15 Sudeste 0 983.5 0.7 73
2018-09-18 00:00:00 23.3 9 Sudeste 19 Sudeste 0 983.6 1.3 65
2018-09-17 23:00:00 23.5 5 Sudeste 18 Este 0 983.6 2.3 66
2018-09-17 22:00:00 23.1 8 Este 13 Este 0 982.8 1.2 70
2018-09-17 21:00:00 23 4 Norte 15 Noroeste 0 982.3 0 70
2018-09-17 20:00:00 23.3 3 Sur 20 Sudoeste 0 981.3 -0.7 62
2018-09-17 19:00:00 22.7 12 Sur 30 Sudoeste 0 981.6 -1.7 67
2018-09-17 18:00:00 24.1 14 Sudoeste 36 Sudoeste 0 982.3 -0.8 62
2018-09-17 17:00:00 24.3 6 Sur 50 Sudoeste 0 982 -2.1 49
2018-09-17 16:00:00 25.4 23 Sudoeste 52 Sudoeste 0 983.3 -1.4 48
2018-09-17 15:00:00 32.2 5 Nordeste 18 Norte 0 983.1 -1.9 34
2018-09-17 14:00:00 31.8 4 Norte 12 Noroeste 0 984.1 -1.2 39
2018-09-17 13:00:00 29.9 4 Norte 12 Norte 0 984.7 -0.8 40
2018-09-17 12:00:00 28.2 5 Norte 9 Norte 0 985 0 47
2018-09-17 11:00:00 25.1 3 Nordeste 10 Norte 0 985.3 0.4 56
2018-09-17 10:00:00 22.3 2 Norte 8 Norte 0 985.5 0.8 60
2018-09-17 09:00:00 19.9 2 Norte 5 Norte 0 985 0.5 71
2018-09-17 08:00:00 19.6 0 Calma 6 Sudeste 0 984.9 0.5 67
2018-09-17 07:00:00 19.3 3 Sudeste 9 Sudeste 0 984.7 0 63
2018-09-17 06:00:00 19.7 5 Sur 9 Sur 0 984.5 -0.4 62
2018-09-17 05:00:00 21 3 Norte 6 Norte 0 984.4 -0.7 61
2018-09-17 04:00:00 21 0 Calma 8 Sur 0 984.7 -0.7 59
2018-09-17 03:00:00 22.2 0 Calma 8 Sudeste 0 984.9 -0.6 52
2018-09-17 02:00:00 22.8 4 Sudeste 9 Sudeste 0 985.1 -0.5 48
2018-09-17 01:00:00 23.2 4 Sur 10 Sur 0 985.4 0 48
2018-09-17 00:00:00 24.3 0 Calma 6 Norte 0 985.5 0.3 47
2018-09-16 23:00:00 25.6 3 Norte 8 Norte 0 985.6 0.5 44
2018-09-16 22:00:00 26.7 0 Calma 9 Norte 0 985.4 0.5 42
2018-09-16 21:00:00 28.1 3 Norte 10 Norte 0 985.2 0.1 38
2018-09-16 20:00:00 30.3 4 Norte 18 Nordeste 0 985.1 -0.4 32
2018-09-16 19:00:00 32.1 6 Norte 25 Este 0 984.9 -1.2 29
2018-09-16 18:00:00 33 5 Nordeste 21 Este 0 985.1 -1.9 25
2018-09-16 17:00:00 32.8 5 Nordeste 31 Sudeste 0 985.5 -2.4 27
2018-09-16 16:00:00 33 6 Sudeste 17 Nordeste 0 986.1 -2.3 29
2018-09-16 15:00:00 32.2 5 Nordeste 18 Sudeste 0 987 -1.7 29
2018-09-16 14:00:00 30.7 6 Este 15 Este 0 987.9 -0.6 35
2018-09-16 13:00:00 29.8 6 Este 19 Sudeste 0 988.4 -0.1 39
2018-09-16 12:00:00 28.2 4 Este 16 Sudeste 0 988.7 0.3 46
2018-09-16 11:00:00 26 10 Sudeste 17 Sudeste 0 988.5 0.6 53
2018-09-16 10:00:00 23.3 8 Este 14 Sudeste 0 988.5 1.2 61
2018-09-16 09:00:00 20.5 4 Este 13 Este 0 988.4 1 71
2018-09-16 08:00:00 20.2 5 Este 14 Sudeste 0 987.9 0.6 70
2018-09-16 07:00:00 20.5 5 Este 15 Este 0 987.3 -0.2 69
2018-09-16 06:00:00 20.6 6 Este 15 Este 0 987.4 -0.1 66
2018-09-16 05:00:00 20.9 5 Este 12 Este 0 987.3 -0.2 66
2018-09-16 04:00:00 20.9 2 Noroeste 7 Noroeste 0 987.5 0.2 71
2018-09-16 03:00:00 21.2 3 Sudoeste 14 Sudeste 0 987.5 0.2 69
2018-09-16 02:00:00 22.3 6 Sudeste 15 Sudeste 0 987.5 1.1 62
2018-09-16 01:00:00 22.6 4 Sudeste 8 Sudeste 0 987.3 1.2 66
2018-09-16 00:00:00 23.7 4 Sudeste 19 Sudeste 0 987.3 1.8 61
2018-09-15 23:00:00 24.3 0 Calma 10 Oeste 0 986.4 1.4 62
2018-09-15 22:00:00 25.6 3 Sudeste 13 Sudeste 0 986.1 1.7 56
2018-09-15 21:00:00 27.9 8 Sudeste 22 Este 0 985.5 1.2 45
2018-09-15 20:00:00 30.4 4 Noroeste 16 Norte 0 985 0.2 32
2018-09-15 19:00:00 31.4 6 Noroeste 19 Noroeste 0 984.4 -0.8 31
2018-09-15 18:00:00 31.9 5 Noroeste 17 Norte 0 984.3 -1.6 29
2018-09-15 17:00:00 31.4 6 Norte 17 Noroeste 0 984.8 -1.6 32
2018-09-15 16:00:00 32.1 4 Este 13 Este 0 985.2 -1.7 29
2018-09-15 15:00:00 31.9 5 Este 18 Este 0 985.9 -1.4 30
2018-09-15 14:00:00 30.6 6 Este 15 Este 0 986.4 -0.9 36
2018-09-15 13:00:00 28.2 4 Este 11 Este 0 986.9 0.2 43
2018-09-15 12:00:00 25.4 3 Nordeste 9 Noroeste 0 987.3 0.7 56
2018-09-15 11:00:00 23 3 Nordeste 12 Noroeste 0 987.3 1.2 70
2018-09-15 10:00:00 20.4 4 Noroeste 7 Noroeste 0 986.7 1.1 78
2018-09-15 09:00:00 18.3 0 Calma 6 Nordeste 0 986.6 1 88
2018-09-15 08:00:00 18.5 3 Este 9 Sudeste 0 986.1 1.3 86
2018-09-15 07:00:00 18.6 5 Sur 8 Sur 0 985.6 0.2 84
2018-09-15 06:00:00 19.3 0 Calma 8 Sudeste 0 985.6 -0.2 82
2018-09-15 05:00:00 20.2 3 Oeste 10 Este 0 984.8 -1.1 79
2018-09-15 04:00:00 20.2 2 Nordeste 18 Sur 0 985.4 -1.1 76
2018-09-15 03:00:00 20.1 3 Sudeste 10 Sur 0 985.8 -0.4 81
2018-09-15 02:00:00 19.9 6 Sudoeste 15 Noroeste 0 985.9 -1.4 83
2018-09-15 01:00:00 20.3 5 Oeste 37 Oeste 0 986.5 0.3 82
2018-09-15 00:00:00 20.9 14 Oeste 34 Oeste 0 986.2 1.1 78
2018-09-14 23:00:00 23.1 6 Sur 24 Sur 0 987.3 2.9 57
2018-09-14 22:00:00 23.8 15 Sur 34 Sudoeste 0 986.2 3.1 52
2018-09-14 21:00:00 23.8 19 Sudoeste 36 Sudoeste 0 985.1 2.6 55
2018-09-14 20:00:00 25.4 12 Sur 53 Sudeste 0 984.4 1.3 50
2018-09-14 19:00:00 32.3 6 Nordeste 20 Nordeste 0 983.1 -0.9 24
2018-09-14 18:00:00 33.9 4 Norte 11 Noroeste 0 982.5 -2.3 23
2018-09-14 17:00:00 32.6 4 Noroeste 15 Noroeste 0 983.1 -2.4 27
2018-09-14 16:00:00 32.9 7 Noroeste 15 Noroeste 0 984 -1.9 25
2018-09-14 15:00:00 31.4 3 Nordeste 8 Noroeste 0 984.8 -1.3 27
2018-09-14 14:00:00 30.7 4 Norte 9 Norte 0 985.5 -0.1 28
2018-09-14 13:00:00 29.5 4 Noroeste 11 Noroeste 0 985.9 0.7 31
2018-09-14 12:00:00 26.6 3 Oeste 14 Sudoeste 0 986.1 1.1 38
2018-09-14 11:00:00 25.7 6 Sudoeste 14 Sudoeste 0 985.6 1 38
2018-09-14 10:00:00 23.1 6 Sudoeste 12 Oeste 0 985.2 0.9 46
2018-09-14 09:00:00 20.4 4 Sudoeste 11 Sudoeste 0 985 1.1 58
2018-09-14 08:00:00 20.2 5 Sudoeste 15 Sudoeste 0 984.6 0.6 57
2018-09-14 07:00:00 20.6 6 Sudoeste 10 Sudoeste 0 984.3 0 57
2018-09-14 06:00:00 21.3 5 Sudoeste 15 Sudoeste 0 983.9 -0.6 59
2018-09-14 05:00:00 22.3 9 Sudoeste 15 Sudoeste 0 984 -0.7 57
2018-09-14 04:00:00 23 5 Sudoeste 12 Oeste 0 984.3 -0.4 57
2018-09-14 03:00:00 23.8 6 Sudoeste 13 Sudoeste 0 984.5 0 56
2018-09-14 02:00:00 24.9 6 Sudoeste 12 Sudoeste 0 984.7 0.2 53
2018-09-14 01:00:00 25.4 7 Sudoeste 16 Sudoeste 0 984.7 0.8 51
2018-09-14 00:00:00 26.2 9 Sudoeste 15 Sudoeste 0 984.5 1 48
2018-09-13 23:00:00 27 8 Sudoeste 20 Sur 0 984.5 0.6 38
2018-09-13 22:00:00 28.6 0 Calma 5 Noroeste 0 983.9 0 33
2018-09-13 21:00:00 30.1 0 Calma 6 Nordeste 0 983.5 -0.6 27
2018-09-13 20:00:00 33.8 3 Nordeste 13 Norte 0 983.9 -0.7 23
2018-09-13 19:00:00 35.1 3 Norte 18 Noroeste 0 983.9 -1.5 20
2018-09-13 18:00:00 35.1 6 Norte 15 Norte 0 984.1 -2 18
2018-09-13 17:00:00 34.9 6 Nordeste 19 Norte 0 984.6 -2.2 21
2018-09-13 16:00:00 35.3 3 Nordeste 16 Norte 0 985.4 -2.1 21
2018-09-13 15:00:00 34.2 4 Norte 13 Noroeste 0 986.1 -1.5 25
2018-09-13 14:00:00 32.2 3 Norte 9 Noroeste 0 986.8 -0.8 32
2018-09-13 13:00:00 30.3 2 Nordeste 9 Nordeste 0 987.5 0.2 37
2018-09-13 12:00:00 27.5 4 Noroeste 8 Norte 0 987.6 0.5 47
2018-09-13 11:00:00 26.6 3 Sudoeste 10 Oeste 0 987.6 0.7 50
2018-09-13 10:00:00 23.7 4 Sudoeste 9 Sur 0 987.3 0.8 61
2018-09-13 09:00:00 20.8 3 Sudoeste 8 Sur 0 987.1 0.7 74
2018-09-13 08:00:00 20.6 4 Sur 8 Sudoeste 0 986.9 0.2 73
2018-09-13 07:00:00 21.1 4 Sur 10 Sudoeste 0 986.5 -0.3 70
2018-09-13 06:00:00 21.7 5 Sudoeste 10 Sudoeste 0 986.4 -0.8 68
2018-09-13 05:00:00 22.3 5 Oeste 10 Sudoeste 0 986.7 -0.8 62
2018-09-13 04:00:00 22.7 3 Sudoeste 10 Oeste 0 986.8 -0.6 58
2018-09-13 03:00:00 23.2 5 Sudoeste 9 Sudoeste 0 987.2 -0.4 56
2018-09-13 02:00:00 23.2 0 Calma 7 Norte 0 987.5 0 57
2018-09-13 01:00:00 24.2 2 Oeste 8 Sudeste 0 987.4 0.3 49
2018-09-13 00:00:00 25.5 3 Sudeste 8 Sudeste 0 987.6 1 39
2018-09-12 23:00:00 26.9 2 Este 7 Sudeste 0 987.5 1 36
2018-09-12 22:00:00 28 3 Sudeste 6 Sur 0 987.1 0.2 35
2018-09-12 21:00:00 29.4 0 Calma 6 Noroeste 0 986.6 -0.4 32
2018-09-12 20:00:00 32.3 2 Noroeste 9 Noroeste 0 986.5 -0.6 27
2018-09-12 19:00:00 34.2 3 Oeste 13 Noroeste 0 986.9 -0.9 22
2018-09-12 18:00:00 34.6 5 Sudoeste 15 Noroeste 0 987 -1.8 23
2018-09-12 17:00:00 33.2 6 Noroeste 16 Noroeste 0 987.1 -2.3 29
2018-09-12 16:00:00 33.1 5 Norte 19 Noroeste 0 987.8 -2.2 29
2018-09-12 15:00:00 32.5 3 Noroeste 19 Norte 0 988.8 -1.4 33
2018-09-12 14:00:00 31.9 4 Noroeste 14 Norte 0 989.4 -0.5 36
2018-09-12 13:00:00 31.6 3 Este 10 Sudeste 0 990 0.5 41
2018-09-12 12:00:00 29.5 3 Sudeste 11 Este 0 990.2 1 46
2018-09-12 11:00:00 27.6 2 Sudeste 7 Noroeste 0 989.9 1.4 52
2018-09-12 10:00:00 24.1 0 Calma 8 Norte 0 989.5 1.2 64
2018-09-12 09:00:00 21.1 3 Nordeste 10 Sudeste 0 989.2 1 73
2018-09-12 08:00:00 21.5 4 Sudeste 10 Sudeste 0 988.5 0.6 71
2018-09-12 07:00:00 22 4 Sudeste 10 Este 0 988.3 0.7 67
2018-09-12 06:00:00 22.6 8 Este 14 Este 0 988.2 0.7 62
2018-09-12 05:00:00 21.1 2 Nordeste 6 Nordeste 0 987.9 0.5 62
2018-09-12 04:00:00 21.1 2 Noroeste 8 Noroeste 0 987.6 0.2 60
2018-09-12 03:00:00 21.5 2 Este 8 Norte 0 987.5 0.3 56
2018-09-12 02:00:00 22.2 3 Norte 12 Sur 0 987.4 0.6 54
2018-09-12 01:00:00 23.2 0 Calma 9 Sur 0 987.4 1 51
2018-09-12 00:00:00 24.1 0 Calma 9 Nordeste 0 987.2 1.2 47
2018-09-11 23:00:00 25.5 2 Norte 5 Norte 0 986.8 1.1 37
2018-09-11 22:00:00 26.9 3 Norte 8 Norte 0 986.4 0.5 33
2018-09-11 21:00:00 28.5 4 Norte 10 Norte 0 986 -0.1 30
2018-09-11 20:00:00 31 5 Norte 16 Norte 0 985.7 -1.1 27
2018-09-11 19:00:00 31.4 10 Norte 18 Norte 0 985.9 -1.6 25
2018-09-11 18:00:00 32.4 4 Nordeste 18 Nordeste 0 986.1 -2.1 27
2018-09-11 17:00:00 32.1 6 Norte 21 Norte 0 986.8 -2.1 27
2018-09-11 16:00:00 32.3 6 Este 19 Nordeste 0 987.5 -2 29
2018-09-11 15:00:00 31 5 Norte 23 Norte 0 988.2 -1.7 36
2018-09-11 14:00:00 29.5 9 Nordeste 23 Nordeste 0 988.9 -1 36
2018-09-11 13:00:00 28.5 8 Nordeste 21 Nordeste 0 989.5 -0.2 43
2018-09-11 12:00:00 27.2 9 Este 25 Este 0 989.9 0.4 45
2018-09-11 11:00:00 25.2 11 Este 28 Nordeste 0 989.9 0.9 51
2018-09-11 10:00:00 23.2 6 Este 15 Este 0 989.7 1.2 58
2018-09-11 09:00:00 20 3 Nordeste 9 Este 0 989.5 1.1 72
2018-09-11 08:00:00 19.9 0 Calma 14 Este 0 989 0.6 71
2018-09-11 07:00:00 20.6 4 Sudeste 16 Nordeste 0 988.5 0.2 66
2018-09-11 06:00:00 21.1 6 Nordeste 14 Este 0 988.4 -0.1 64
2018-09-11 05:00:00 21.6 6 Nordeste 21 Nordeste 0 988.4 -0.1 60
2018-09-11 04:00:00 22.2 6 Este 28 Nordeste 0 988.3 -0.4 56
2018-09-11 03:00:00 22.3 6 Nordeste 17 Nordeste 0 988.5 -0.2 55
2018-09-11 02:00:00 22.4 6 Nordeste 11 Nordeste 0 988.5 0.1 57
2018-09-11 01:00:00 23.5 3 Este 11 Este 0 988.7 1.2 49
2018-09-11 00:00:00 24.4 4 Este 17 Sudeste 0 988.7 1.7 48
2018-09-10 23:00:00 26.6 6 Este 17 Sudeste 0 988.4 1.7 35
2018-09-10 22:00:00 28 9 Este 22 Este 0 987.5 0.8 32
2018-09-10 21:00:00 29 5 Este 21 Este 0 987 0.2 29
2018-09-10 20:00:00 31.2 6 Este 22 Norte 0 986.7 -0.8 24
2018-09-10 19:00:00 32.2 5 Nordeste 28 Nordeste 0 986.7 -1.4 21
2018-09-10 18:00:00 32.1 5 Noroeste 18 Nordeste 0 986.8 -2.1 23
2018-09-10 17:00:00 31.6 6 Norte 24 Este 0 987.5 -2 24
2018-09-10 16:00:00 32.2 4 Este 17 Este 0 988.1 -1.9 25
2018-09-10 15:00:00 30.2 6 Nordeste 24 Nordeste 0 988.9 -1.3 29
2018-09-10 14:00:00 29.5 8 Este 24 Este 0 989.5 -0.7 32
2018-09-10 13:00:00 27.2 6 Nordeste 17 Nordeste 0 990 0.2 40
2018-09-10 12:00:00 25.8 4 Nordeste 13 Nordeste 0 990.2 0.9 44
2018-09-10 11:00:00 22.6 4 Nordeste 12 Este 0 990.2 1.2 55
2018-09-10 10:00:00 20.3 0 Calma 5 Sudeste 0 989.8 1.1 59
2018-09-10 09:00:00 17.2 2 Sur 14 Este 0 989.3 0.8 67
2018-09-10 08:00:00 17.1 4 Este 13 Este 0 989 0.5 64
2018-09-10 07:00:00 16.9 4 Nordeste 11 Nordeste 0 988.7 -0.1 72
2018-09-10 06:00:00 16.8 4 Nordeste 10 Norte 0 988.5 0.1 73
2018-09-10 05:00:00 17.8 8 Sudeste 17 Sudeste 0 988.5 0.1 62
2018-09-10 04:00:00 18.5 9 Sudeste 15 Sudeste 0 988.8 0.4 61
2018-09-10 03:00:00 18.9 2 Sur 9 Sudeste 0.2 988.4 0.5 61
2018-09-10 02:00:00 19.9 2 Este 13 Este 0 988.4 0.5 57
2018-09-10 01:00:00 20.9 5 Nordeste 13 Norte 0 988.4 1.1 49
2018-09-10 00:00:00 21.6 4 Este 9 Sudeste 0 987.9 1.5 47
2018-09-09 23:00:00 23 8 Sudeste 16 Sudeste 0 987.9 2 46
2018-09-09 22:00:00 22.8 2 Noroeste 6 Sudeste 0 987.3 1.6 58
2018-09-09 21:00:00 24.1 3 Sur 11 Nordeste 0 986.4 0.7 52
2018-09-09 20:00:00 25.4 4 Nordeste 13 Nordeste 0 985.9 0.4 44
2018-09-09 19:00:00 24.7 4 Norte 26 Norte 0 985.7 -0.6 44
2018-09-09 18:00:00 27.6 10 Norte 35 Norte 0 985.7 -1 40
2018-09-09 17:00:00 28.6 4 Norte 15 Oeste 0 985.5 -1.9 38
2018-09-09 16:00:00 27.4 6 Sudoeste 11 Sudoeste 0 986.3 -1.5 45
2018-09-09 15:00:00 25.8 4 Oeste 10 Sudoeste 0 986.7 -1.6 53
2018-09-09 14:00:00 27.3 3 Sudeste 12 Nordeste 0 987.4 -0.7 45
2018-09-09 13:00:00 26.1 4 Este 13 Este 0 987.8 0.3 54
2018-09-09 12:00:00 23 5 Nordeste 12 Nordeste 0 988.3 0.9 71
2018-09-09 11:00:00 20.1 3 Norte 9 Norte 0 988.1 1.2 82
2018-09-09 10:00:00 19.9 2 Oeste 7 Noroeste 0 987.5 0.5 83
2018-09-09 09:00:00 18.6 3 Noroeste 13 Sudoeste 0 987.4 1 90
2018-09-09 08:00:00 18.3 3 Sudoeste 13 Sudeste 0 986.9 0.7 89
2018-09-09 07:00:00 19.2 4 Sur 17 Sudoeste 0 987 0.8 80
2018-09-09 06:00:00 20.7 3 Oeste 6 Oeste 0 986.4 0 63
2018-09-09 05:00:00 21.2 0 Calma 4 Norte 0 986.2 -0.1 64
2018-09-09 04:00:00 21.1 2 Norte 14 Noroeste 0 986.2 0 69
2018-09-09 03:00:00 22.2 3 Sur 13 Sur 0 986.4 0.6 58
2018-09-09 02:00:00 22.4 4 Sur 8 Sur 0 986.3 0.7 58
2018-09-09 01:00:00 22.1 4 Sudoeste 12 Sudoeste 0 986.2 1.8 59
2018-09-09 00:00:00 22.7 6 Sudoeste 16 Sudoeste 0 985.8 2.4 59
2018-09-08 23:00:00 23.1 4 Noroeste 23 Sudoeste 0 985.6 3.1 57
2018-09-08 22:00:00 25.1 9 Sur 30 Sur 0.2 984.4 2.3 45
2018-09-08 21:00:00 26.4 15 Sur 32 Sudoeste 0 983.4 1.2 38
2018-09-08 20:00:00 28.8 9 Sur 28 Sudeste 0 982.5 0.1 33
2018-09-08 19:00:00 28.6 10 Sur 28 Sudeste 0 982.1 -0.8 34
2018-09-08 18:00:00 28.9 5 Sur 15 Sudoeste 0.2 982.2 -1.1 35
2018-09-08 17:00:00 27.4 3 Norte 12 Noroeste 0.2 982.4 -1.3 46
2018-09-08 16:00:00 28.2 6 Noroeste 18 Norte 0 982.9 -0.9 35
2018-09-08 15:00:00 29.2 3 Este 15 Noroeste 0 983.3 -0.6 35
2018-09-08 14:00:00 27.2 4 Oeste 16 Sudoeste 0 983.7 0.2 37
2018-09-08 13:00:00 27.3 6 Oeste 15 Sudoeste 0 983.8 0.7 36
2018-09-08 12:00:00 26.1 4 Noroeste 12 Noroeste 0 983.9 0.7 40
2018-09-08 11:00:00 24.8 5 Oeste 10 Sudoeste 0 983.5 1.2 43
2018-09-08 10:00:00 21.9 3 Sur 7 Sur 0 983.1 1.1 46
2018-09-08 09:00:00 19.7 4 Sudeste 8 Sudeste 0 983.2 0.8 53
2018-09-08 08:00:00 18.9 3 Sur 9 Sudoeste 0 982.3 -0.4 58
2018-09-08 07:00:00 19.6 3 Sudoeste 5 Sur 0 982 -0.5 55
2018-09-08 06:00:00 19.8 4 Sudoeste 7 Sudoeste 0 982.4 0.5 57
2018-09-08 05:00:00 19.4 3 Sudoeste 7 Sur 0 982.7 0.7 52
2018-09-08 04:00:00 19.8 4 Sudoeste 10 Sur 0 982.5 0.8 51
2018-09-08 03:00:00 20.2 0 Calma 13 Noroeste 0 981.9 0.3 55
2018-09-08 02:00:00 20.9 4 Noroeste 13 Noroeste 0 982 0.8 54
2018-09-08 01:00:00 22 2 Este 10 Sur 0 981.7 0.9 49
2018-09-08 00:00:00 22.9 3 Sur 8 Sur 0 981.6 1.5 44
2018-09-07 23:00:00 23.5 2 Este 12 Sur 0 981.2 1.7 41
2018-09-07 22:00:00 25.7 5 Sur 22 Sudoeste 0 980.8 1.7 32
2018-09-07 21:00:00 27.7 14 Sur 33 Sudoeste 0 980.1 1.3 25
2018-09-07 20:00:00 29.5 15 Sur 32 Sudoeste 0 979.5 0.6 18
2018-09-07 19:00:00 31.3 14 Sur 34 Sur 0 979.1 -0.3 14
2018-09-07 18:00:00 32.9 14 Sur 33 Sur 0 978.8 -1.1 13
2018-09-07 17:00:00 32.8 6 Sur 29 Sudeste 0 978.9 -1.7 19
2018-09-07 16:00:00 33.7 10 Este 29 Sudeste 0 979.4 -2 18
2018-09-07 15:00:00 33.4 9 Sur 31 Sudeste 0 979.9 -2.1 17
2018-09-07 14:00:00 31.6 7 Sudeste 18 Sudeste 0 980.6 -1.3 21
2018-09-07 13:00:00 29.4 5 Este 15 Sudeste 0 981.4 -0.4 27
2018-09-07 12:00:00 25.6 5 Nordeste 10 Nordeste 0 982 0.2 38
2018-09-07 11:00:00 22.5 3 Norte 8 Nordeste 0 981.9 0.4 48
2018-09-07 10:00:00 18.6 3 Norte 9 Norte 0 981.8 0.5 56
2018-09-07 09:00:00 16.6 3 Sur 5 Sur 0 981.8 0.7 55
2018-09-07 08:00:00 15.8 2 Sudeste 12 Sudeste 0 981.5 0.1 57
2018-09-07 07:00:00 16.4 2 Sudoeste 7 Oeste 0 981.3 -0.2 69
2018-09-07 06:00:00 16.8 3 Oeste 6 Sudoeste 0 981.1 -0.6 63
2018-09-07 05:00:00 17.7 2 Noroeste 12 Sudoeste 0 981.4 -0.5 57
2018-09-07 04:00:00 18.5 9 Sudoeste 16 Sur 0 981.5 -0.3 49
2018-09-07 03:00:00 19.5 7 Sur 13 Sur 0 981.7 -0.2 46
2018-09-07 02:00:00 19.9 2 Sudoeste 6 Norte 0 981.9 -0.1 47
2018-09-07 01:00:00 20.7 2 Sur 9 Sur 0 981.8 0.4 42
2018-09-07 00:00:00 20.8 3 Sur 8 Sudoeste 0 981.9 0.9 47
2018-09-06 23:00:00 22.4 3 Sur 6 Sudoeste 0 982 1.2 42
2018-09-06 22:00:00 23.8 0 Calma 3 Norte 0 981.4 0.4 34
2018-09-06 21:00:00 25.3 0 Calma 9 Noroeste 0 981 -0.2 31
2018-09-06 20:00:00 28.3 4 Noroeste 16 Noroeste 0 980.8 -0.8 25
2018-09-06 19:00:00 29 8 Noroeste 20 Noroeste 0 981 -1.2 24
2018-09-06 18:00:00 29.8 8 Oeste 22 Oeste 0 981.2 -1.7 24
2018-09-06 17:00:00 30.5 8 Oeste 18 Oeste 0 981.6 -1.8 23
2018-09-06 16:00:00 29 6 Oeste 15 Sudoeste 0 982.2 -2 28
2018-09-06 15:00:00 27.7 6 Oeste 15 Noroeste 0 982.9 -1.5 33
2018-09-06 14:00:00 24.9 6 Oeste 17 Oeste 0 983.4 -0.9 49
2018-09-06 13:00:00 23.1 6 Oeste 17 Oeste 0 984.2 0.2 58
2018-09-06 12:00:00 20.6 7 Oeste 19 Noroeste 0 984.4 0.7 67
2018-09-06 11:00:00 18.2 6 Oeste 21 Sudoeste 0 984.3 1.2 79
2018-09-06 10:00:00 16.9 8 Oeste 18 Sudoeste 0 984 1.3 85
2018-09-06 09:00:00 16.1 4 Sudoeste 20 Sudoeste 0 983.7 0.9 88
2018-09-06 08:00:00 16 8 Sudoeste 18 Sudoeste 0 983.1 0.3 88
2018-09-06 07:00:00 16.5 9 Sudoeste 17 Oeste 0 982.7 0 85
2018-09-06 06:00:00 17 6 Sudoeste 15 Sudoeste 0 982.8 -0.1 81
2018-09-06 05:00:00 17.5 5 Sudoeste 13 Sudoeste 0 982.8 -0.2 78
2018-09-06 04:00:00 18.2 8 Sudoeste 15 Sudoeste 0 982.7 -0.1 74
2018-09-06 03:00:00 18.5 7 Sudoeste 15 Sudoeste 0 982.9 0 69
2018-09-06 02:00:00 19.1 4 Sur 13 Sudoeste 0 983 0.2 63
2018-09-06 01:00:00 19.2 7 Sudoeste 10 Sudoeste 0 982.8 0.5 64
2018-09-06 00:00:00 20.1 4 Sudoeste 9 Oeste 0 982.9 1.2 59
2018-09-05 23:00:00 21.1 4 Sudoeste 8 Oeste 0 982.8 1.2 54
2018-09-05 22:00:00 22.4 3 Oeste 11 Oeste 0 982.3 0.6 48
2018-09-05 21:00:00 24.2 4 Oeste 20 Oeste 0 981.7 -0.3 41
2018-09-05 20:00:00 26.8 9 Oeste 25 Oeste 0 981.6 -0.5 32
2018-09-05 19:00:00 27 9 Oeste 26 Sudoeste 0 981.7 -0.8 33
2018-09-05 18:00:00 27.8 9 Oeste 28 Oeste 0 982 -1 36
2018-09-05 17:00:00 28.3 9 Oeste 27 Sudoeste 0 982.1 -1.3 34
2018-09-05 16:00:00 28.3 4 Sudoeste 21 Noroeste 0 982.5 -1.6 33
2018-09-05 15:00:00 27 8 Oeste 23 Oeste 0 983 -1.4 37
2018-09-05 14:00:00 28.4 8 Sur 25 Sur 0 983.4 -0.9 32
2018-09-05 13:00:00 26.8 6 Sur 22 Sur 0 984.1 0.1 39
2018-09-05 12:00:00 24.9 8 Sudoeste 16 Sudoeste 0 984.4 1 48
2018-09-05 11:00:00 22.9 5 Sudoeste 12 Sudoeste 0 984.3 1.3 62
2018-09-05 10:00:00 21.3 6 Sudoeste 13 Sur 0 984 1.4 70
2018-09-05 09:00:00 20.2 3 Sudoeste 9 Sudoeste 0 983.4 0.9 75
2018-09-05 08:00:00 19.2 4 Sudoeste 12 Sudoeste 0 983 0.5 77
2018-09-05 07:00:00 19.2 3 Sudoeste 17 Sudoeste 0 982.6 0.4 76
2018-09-05 06:00:00 19.3 7 Sudoeste 19 Sudoeste 0 982.5 0.4 76
2018-09-05 05:00:00 18.7 8 Sudoeste 15 Sudoeste 0 982.5 0.4 77
2018-09-05 04:00:00 18.8 6 Oeste 14 Oeste 0 982.2 0.5 74
2018-09-05 03:00:00 19.3 9 Sudoeste 16 Sudoeste 0 982.1 0.4 69
2018-09-05 02:00:00 20 7 Sudoeste 17 Sudoeste 0 982.1 0.6 57
2018-09-05 01:00:00 20.9 5 Sur 11 Sur 0 981.7 0.8 55
2018-09-05 00:00:00 21 3 Sur 7 Sur 0 981.7 1.7 60
2018-09-04 23:00:00 22.2 2 Sur 9 Oeste 0 981.5 2.1 53
2018-09-04 22:00:00 23.3 5 Oeste 25 Oeste 0 980.9 1.6 49
2018-09-04 21:00:00 25.1 10 Oeste 26 Oeste 0 980 0.6 44
2018-09-04 20:00:00 27.8 10 Oeste 25 Noroeste 0 979.4 -0.4 36
2018-09-04 19:00:00 29.5 8 Oeste 23 Noroeste 0 979.3 -1 32
2018-09-04 18:00:00 28.9 9 Noroeste 22 Noroeste 0 979.4 -1.5 35
2018-09-04 17:00:00 29.3 8 Oeste 22 Oeste 0 979.8 -1.5 33
2018-09-04 16:00:00 29.5 6 Oeste 18 Sudeste 0 980.3 -1.7 32
2018-09-04 15:00:00 27.6 5 Norte 20 Oeste 0 980.9 -1.2 40
2018-09-04 14:00:00 27.2 9 Sudeste 18 Sudeste 0 981.3 -0.8 43
2018-09-04 13:00:00 24.4 4 Noroeste 12 Sur 0 982 -0.1 50
2018-09-04 12:00:00 23.8 7 Sudoeste 17 Sudoeste 0 982.1 0.3 51
2018-09-04 11:00:00 22.8 6 Sudoeste 14 Sudoeste 0 982.1 0.8 54
2018-09-04 10:00:00 19.9 5 Oeste 10 Oeste 0 982.1 1 66
2018-09-04 09:00:00 17.6 4 Sudoeste 10 Sudoeste 0 981.8 1 75
2018-09-04 08:00:00 17.1 3 Sudoeste 9 Oeste 0 981.3 0.8 78
2018-09-04 07:00:00 17.7 8 Sudoeste 15 Sudoeste 0 981.1 0.3 74
2018-09-04 06:00:00 18.2 6 Sudoeste 13 Sudoeste 0 980.8 0.2 73
2018-09-04 05:00:00 18.9 8 Oeste 17 Sudoeste 0 980.5 0 70
2018-09-04 04:00:00 19.7 7 Sudoeste 16 Sudoeste 0 980.8 0.7 67
2018-09-04 03:00:00 21.2 8 Oeste 26 Oeste 0 980.6 0.6 60
2018-09-04 02:00:00 22.3 12 Sudoeste 22 Sudoeste 0 980.5 0.7 57
2018-09-04 01:00:00 23.3 6 Sur 11 Sur 0 980.1 0.7 52
2018-09-04 00:00:00 23.6 5 Sur 10 Sur 0 980 1.3 52
2018-09-03 23:00:00 23.9 3 Sur 7 Oeste 0 979.8 1.4 53
2018-09-03 22:00:00 25.1 4 Oeste 13 Noroeste 0 979.4 0.9 50
2018-09-03 21:00:00 26.7 6 Noroeste 22 Noroeste 0 978.7 0 46
2018-09-03 20:00:00 28.5 10 Noroeste 24 Noroeste 0 978.4 -0.8 39
2018-09-03 19:00:00 29.8 9 Noroeste 22 Noroeste 0 978.5 -1.2 37
2018-09-03 18:00:00 29.8 10 Oeste 30 Norte 0 978.7 -1.4 39
2018-09-03 17:00:00 30.3 10 Oeste 22 Noroeste 0 979.2 -1.2 39
2018-09-03 16:00:00 29 8 Norte 21 Oeste 0 979.7 -1.3 43
2018-09-03 15:00:00 29.5 5 Oeste 18 Sudoeste 0 980.1 -1.1 42
2018-09-03 14:00:00 27.9 4 Sudoeste 19 Sudoeste 0 980.4 -0.9 44
2018-09-03 13:00:00 26.4 5 Sudoeste 15 Sudoeste 0 981 0 50
2018-09-03 12:00:00 25.5 7 Sudoeste 21 Sudoeste 0 981.2 0.2 54
2018-09-03 11:00:00 24.7 8 Sur 25 Sur 0 981.3 0.5 58
2018-09-03 10:00:00 24.3 5 Sur 18 Sudeste 0 981 0.5 61
2018-09-03 09:00:00 22.8 6 Sudeste 12 Sudeste 0 981 0.5 71
2018-09-03 08:00:00 21.8 4 Sudeste 12 Sudoeste 0 980.8 0.6 73
2018-09-03 07:00:00 22.6 7 Sudoeste 13 Sudoeste 0 980.5 0.3 69
2018-09-03 06:00:00 22.7 3 Sudoeste 8 Sudeste 0 980.5 0.2 70
2018-09-03 05:00:00 23.4 2 Sur 14 Sudoeste 0 980.2 0 69
2018-09-03 04:00:00 24.7 6 Sudoeste 19 Oeste 0 980.2 0 62
2018-09-03 03:00:00 25.4 9 Oeste 21 Oeste 0 980.3 0.7 59
2018-09-03 02:00:00 26.3 10 Oeste 21 Oeste 0 980.2 1 55
2018-09-03 01:00:00 26.5 3 Sudoeste 11 Oeste 0 980.2 1.7 50
2018-09-03 00:00:00 27.2 3 Sudoeste 14 Sudoeste 0 979.6 1.3 45
2018-09-02 23:00:00 28.7 6 Sudoeste 19 Oeste 0 979.2 0.7 38
2018-09-02 22:00:00 30.8 8 Sur 13 Sudoeste 0 978.5 -0.3 29
2018-09-02 21:00:00 31.6 5 Nordeste 9 Nordeste 0 978.3 -1.3 29
2018-09-02 20:00:00 33.7 6 Norte 22 Sudeste 0 978.5 -1.1 26
2018-09-02 19:00:00 37.1 6 Este 21 Sudeste 0 978.8 -1.8 17
2018-09-02 18:00:00 34.3 10 Este 64 Este 0 979.6 -1.9 22
2018-09-02 17:00:00 37.2 6 Nordeste 22 Nordeste 0 979.6 -2.8 21
2018-09-02 16:00:00 38.3 4 Nordeste 18 Este 0 980.6 -2.5 17
2018-09-02 15:00:00 37 4 Este 22 Sudeste 0 981.5 -2.2 18
2018-09-02 14:00:00 35.3 6 Este 22 Este 0 982.4 -1.5 23
2018-09-02 13:00:00 32.7 6 Nordeste 15 Nordeste 0 983.1 -0.5 27
2018-09-02 12:00:00 30.9 6 Nordeste 15 Nordeste 0 983.7 0.1 34
2018-09-02 11:00:00 28.3 5 Nordeste 9 Nordeste 0 983.9 0.8 40
2018-09-02 10:00:00 24.9 4 Norte 13 Nordeste 0 983.6 1.1 52
2018-09-02 09:00:00 22.2 3 Norte 6 Norte 0 983.6 1.3 62
2018-09-02 08:00:00 22.2 2 Oeste 6 Sudeste 0 983.1 0.9 57
2018-09-02 07:00:00 23.4 5 Sudeste 11 Sudeste 0 982.5 0.2 45
2018-09-02 06:00:00 23.7 5 Sudeste 8 Sudeste 0 982.3 0 49
2018-09-02 05:00:00 24.1 0 Calma 5 Sur 0 982.2 -0.1 52
2018-09-02 04:00:00 24.7 0 Calma 15 Sudoeste 0 982.3 0.2 47
2018-09-02 03:00:00 26.1 8 Sudoeste 15 Sudoeste 0 982.3 0.7 42
2018-09-02 02:00:00 26.9 6 Sudoeste 12 Sur 0 982.3 0.8 31
2018-09-02 01:00:00 28.4 5 Sudoeste 25 Oeste 0 982.1 1 28
2018-09-02 00:00:00 29.8 9 Sur 16 Sudeste 0 981.6 1 23
2018-09-01 23:00:00 32 7 Sur 12 Sur 0 981.5 1.2 22
2018-09-01 22:00:00 32.8 5 Sur 12 Sudoeste 0 981.1 0.8 22
2018-09-01 21:00:00 33.4 2 Nordeste 11 Nordeste 0 980.6 0.1 23
2018-09-01 20:00:00 36.2 5 Nordeste 24 Nordeste 0 980.3 -0.9 18
2018-09-01 19:00:00 37.4 6 Norte 25 Norte 0 980.3 -1.6 17
2018-09-01 18:00:00 37.9 8 Nordeste 27 Nordeste 0 980.5 -2.2 18
2018-09-01 17:00:00 37.5 9 Nordeste 31 Norte 0 981.2 -2 19
2018-09-01 16:00:00 37.1 10 Nordeste 24 Nordeste 0 981.9 -1.8 20
2018-09-01 15:00:00 37 8 Nordeste 27 Nordeste 0 982.7 -1.4 20
2018-09-01 14:00:00 35.4 9 Nordeste 23 Nordeste 0 983.2 -0.9 23
2018-09-01 13:00:00 34.3 8 Nordeste 19 Nordeste 0 983.7 -0.1 26
2018-09-01 12:00:00 32.9 4 Nordeste 13 Nordeste 0 984.1 0.6 27
2018-09-01 11:00:00 30.6 4 Nordeste 10 Nordeste 0 984.1 1 32
2018-09-01 10:00:00 25.9 3 Nordeste 5 Norte 0 983.8 1.1 48
2018-09-01 09:00:00 22 5 Nordeste 8 Norte 0 983.5 1.1 54
2018-09-01 08:00:00 22.3 4 Norte 9 Sudeste 0 983.1 0.4 50
2018-09-01 07:00:00 23.7 6 Sudeste 12 Sudeste 0 982.7 0.2 37
2018-09-01 06:00:00 22.9 0 Calma 13 Sur 0 982.4 0 41
2018-09-01 05:00:00 23.2 7 Sur 13 Sur 0 982.7 0.2 40
2018-09-01 04:00:00 24 3 Nordeste 16 Norte 0 982.5 -0.1 48
2018-09-01 03:00:00 25.8 6 Sudeste 11 Sudeste 0 982.4 0.1 28
2018-09-01 02:00:00 26.7 4 Sudeste 15 Sur 0 982.5 0.3 30
2018-09-01 01:00:00 26.9 5 Sudeste 15 Sur 0 982.6 0.7 29
2018-09-01 00:00:00 26.8 0 Calma 5 Sudeste 0 982.3 0.9 34
2018-08-31 23:00:00 28.8 0 Calma 4 Nordeste 0 982.2 0.8 30
2018-08-31 22:00:00 30.5 0 Calma 8 Norte 0 981.9 0.3 26
2018-08-31 21:00:00 32.5 3 Norte 10 Norte 0 981.4 -0.5 25
2018-08-31 20:00:00 35.2 6 Norte 15 Norte 0 981.4 -1.1 20
2018-08-31 19:00:00 36.2 8 Norte 19 Noroeste 0 981.6 -1.4 17
2018-08-31 18:00:00 36.9 7 Norte 15 Noroeste 0 981.9 -1.6 17
2018-08-31 17:00:00 36.9 8 Norte 23 Norte 0 982.5 -1.5 17
2018-08-31 16:00:00 36.4 7 Norte 19 Norte 0 983 -1.4 20
2018-08-31 15:00:00 35.5 5 Norte 13 Norte 0 983.5 -1.3 20
2018-08-31 14:00:00 33.5 6 Norte 14 Noroeste 0 984 -0.9 26
2018-08-31 13:00:00 32.4 4 Norte 10 Norte 0 984.4 -0.3 26
2018-08-31 12:00:00 29.5 4 Norte 13 Norte 0 984.8 0.3 33
2018-08-31 11:00:00 27 2 Nordeste 8 Nordeste 0 984.9 0.8 35
2018-08-31 10:00:00 23.8 3 Nordeste 7 Nordeste 0 984.7 1.2 44
2018-08-31 09:00:00 20.2 2 Nordeste 8 Oeste 0 984.5 1.1 57
2018-08-31 08:00:00 19.8 0 Calma 6 Sur 0 984.1 0.7 61
2018-08-31 07:00:00 20.6 2 Sur 12 Sur 0 983.5 0.1 50
2018-08-31 06:00:00 21.4 7 Sur 15 Sur 0 983.4 -0.3 43
2018-08-31 05:00:00 21.4 2 Nordeste 8 Sudoeste 0 983.4 -0.4 54
2018-08-31 04:00:00 22.1 4 Sur 8 Sudoeste 0 983.4 -0.3 41
2018-08-31 03:00:00 23 0 Calma 10 Sudeste 0 983.7 0 41
2018-08-31 02:00:00 23.7 6 Sudeste 13 Sudoeste 0 983.8 0.2 35
2018-08-31 01:00:00 24.4 3 Sur 7 Sudoeste 0 983.7 0.5 33
2018-08-31 00:00:00 25.6 2 Sudoeste 6 Sur 0 983.7 0.6 37
2018-08-30 23:00:00 27.4 0 Calma 7 Norte 0 983.6 0.7 30
2018-08-30 22:00:00 28.5 4 Oeste 6 Noroeste 0 983.2 0.1 29
2018-08-30 21:00:00 31.1 0 Calma 8 Oeste 0 983.1 -0.3 25
2018-08-30 20:00:00 34.4 4 Oeste 12 Noroeste 0 982.9 -1 18
2018-08-30 19:00:00 34.7 5 Norte 17 Noroeste 0 983.1 -1.4 19
2018-08-30 18:00:00 34.6 8 Norte 16 Noroeste 0 983.4 -1.6 17
2018-08-30 17:00:00 34.8 6 Noroeste 16 Noroeste 0 983.9 -1.4 20
2018-08-30 16:00:00 33.7 6 Noroeste 16 Noroeste 0 984.5 -1.3 23
2018-08-30 15:00:00 32.6 6 Norte 15 Norte 0 985 -1.2 30
2018-08-30 14:00:00 31 6 Norte 14 Norte 0 985.3 -0.8 33
2018-08-30 13:00:00 29 3 Nordeste 11 Nordeste 0 985.8 0 38
2018-08-30 12:00:00 26.4 3 Este 9 Norte 0 986.2 0.7 45
2018-08-30 11:00:00 23 4 Noroeste 13 Noroeste 0 986.1 1 57
2018-08-30 10:00:00 20.8 6 Sudoeste 13 Oeste 0 985.8 0.9 63
2018-08-30 09:00:00 17.7 6 Sudoeste 14 Sudoeste 0 985.5 0.9 78
2018-08-30 08:00:00 17.3 3 Sudoeste 10 Oeste 0 985.1 0.4 78
2018-08-30 07:00:00 17.9 5 Sur 14 Sudoeste 0 984.9 -0.1 76
2018-08-30 06:00:00 18.8 6 Sudoeste 18 Sudoeste 0 984.6 -0.4 71
2018-08-30 05:00:00 19.5 7 Sudoeste 15 Sudoeste 0 984.7 -0.3 68
2018-08-30 04:00:00 20.4 8 Sudoeste 14 Sudoeste 0 985 0.2 64
2018-08-30 03:00:00 21.1 7 Sudoeste 17 Sudoeste 0 985 0.3 61
2018-08-30 02:00:00 21.7 7 Sudoeste 17 Sudoeste 0 985 0.5 58
2018-08-30 01:00:00 22.8 10 Sudoeste 13 Sudoeste 0 984.8 0.7 48
2018-08-30 00:00:00 23.5 5 Sur 10 Sudoeste 0 984.7 1 46
2018-08-29 23:00:00 24.6 4 Sudoeste 10 Oeste 0 984.5 0.8 42
2018-08-29 22:00:00 26.4 5 Sudoeste 9 Sudoeste 0 984.1 0.2 34
2018-08-29 21:00:00 29.1 3 Sudoeste 11 Sudoeste 0 983.7 -0.5 30
2018-08-29 20:00:00 31.7 3 Oeste 11 Noroeste 0 983.7 -0.9 20
2018-08-29 19:00:00 33.1 4 Sudoeste 16 Noroeste 0 983.9 -1.1 14
2018-08-29 18:00:00 31.6 6 Oeste 18 Sudoeste 0 984.2 -1.4 20
2018-08-29 17:00:00 30.4 6 Noroeste 17 Oeste 0 984.6 -1.6 29
2018-08-29 16:00:00 29.8 7 Oeste 19 Oeste 0 985 -1.9 33
2018-08-29 15:00:00 27.6 5 Oeste 17 Noroeste 0 985.6 -1.4 43
2018-08-29 14:00:00 25.8 6 Oeste 17 Oeste 0 986.2 -0.9 47
2018-08-29 13:00:00 23 5 Norte 14 Noroeste 0 986.9 0.3 60
2018-08-29 12:00:00 21.2 6 Noroeste 17 Sudoeste 0 987 0.7 67
2018-08-29 11:00:00 19.4 8 Sudoeste 19 Oeste 0 987.1 1.4 73
2018-08-29 10:00:00 18.4 8 Oeste 19 Oeste 0 986.6 1.1 79
2018-08-29 09:00:00 17.8 6 Sudoeste 15 Sudoeste 0 986.3 0.9 84
2018-08-29 08:00:00 16.7 5 Sudoeste 11 Oeste 0 985.7 0.5 86
2018-08-29 07:00:00 16.5 5 Sudoeste 15 Sudoeste 0 985.5 0.5 85
2018-08-29 06:00:00 17.1 3 Sudoeste 15 Sudoeste 0 985.4 0.4 85
2018-08-29 05:00:00 17.5 5 Oeste 19 Sudoeste 0 985.2 0.4 84
2018-08-29 04:00:00 18.1 8 Sudoeste 26 Oeste 0 985 0.4 81
2018-08-29 03:00:00 19 12 Sudoeste 24 Oeste 0 985 0.7 77
2018-08-29 02:00:00 20.2 13 Sudoeste 25 Sudoeste 0 984.8 1 70
2018-08-29 01:00:00 22 10 Sudoeste 20 Sudoeste 0 984.6 1.6 58
2018-08-29 00:00:00 23 7 Sudoeste 15 Sudoeste 0 984.3 2.2 50
2018-08-28 23:00:00 25.1 5 Oeste 16 Oeste 0 983.8 2.1 42
2018-08-28 22:00:00 26.6 5 Oeste 17 Oeste 0 983 1.4 33
2018-08-28 21:00:00 28.8 5 Oeste 22 Oeste 0 982.1 0.5 26
2018-08-28 20:00:00 31.4 10 Oeste 33 Oeste 0 981.7 -0.3 25
2018-08-28 19:00:00 32.8 12 Oeste 31 Oeste 0 981.6 -1.1 31
2018-08-28 18:00:00 34.2 9 Oeste 27 Noroeste 0 981.6 -1.5 25
2018-08-28 17:00:00 33.5 10 Noroeste 28 Noroeste 0 982 -1.5 25
2018-08-28 16:00:00 33.8 11 Noroeste 27 Noroeste 0 982.7 -1.2 23
2018-08-28 15:00:00 32.1 11 Oeste 23 Noroeste 0 983.1 -0.8 32
2018-08-28 14:00:00 30.8 5 Noroeste 19 Noroeste 0 983.5 -0.3 40
2018-08-28 13:00:00 30.5 6 Oeste 15 Oeste 0 983.9 0.3 40
2018-08-28 12:00:00 28.2 7 Oeste 16 Sudoeste 0 983.9 0.5 48
2018-08-28 11:00:00 27.4 6 Sudoeste 16 Oeste 0 983.8 0.9 48
2018-08-28 10:00:00 24.7 5 Sur 11 Sudoeste 0 983.6 1.4 59
2018-08-28 09:00:00 22.2 6 Sudoeste 12 Sudoeste 0 983.4 1.6 66
2018-08-28 08:00:00 22.3 5 Sudoeste 20 Sudoeste 0 982.9 1 65
2018-08-28 07:00:00 23.1 8 Sudoeste 16 Sur 0 982.2 0.3 60
2018-08-28 06:00:00 23.6 6 Sur 20 Sur 0 981.8 -0.4 53
2018-08-28 05:00:00 25.7 10 Sur 24 Sur 0 981.9 -0.1 46
2018-08-28 04:00:00 25.8 3 Sudeste 28 Sur 0 981.9 0.6 42
2018-08-28 03:00:00 25.1 0 Calma 11 Oeste 0 982.2 1.7 49
2018-08-28 02:00:00 26.8 4 Oeste 23 Sudoeste 0 982 2.2 40
2018-08-28 01:00:00 29.1 12 Sur 30 Sudoeste 0 981.3 2.2 25
2018-08-28 00:00:00 29.2 8 Sudeste 14 Sur 0 980.5 1.6 23
2018-08-27 23:00:00 29.9 6 Sudeste 14 Sur 0 979.8 1 21
2018-08-27 22:00:00 31.7 7 Sur 12 Sudeste 0 979.1 0 17
2018-08-27 21:00:00 35.2 5 Sudeste 27 Sudeste 0 978.9 -0.5 14
2018-08-27 20:00:00 37.5 11 Este 30 Este 0 978.8 -1 12
2018-08-27 19:00:00 38.4 15 Este 33 Este 0 979.1 -1.2 12
2018-08-27 18:00:00 38.4 10 Este 24 Sudeste 0 979.4 -3.4 12
2018-08-27 17:00:00 35.7 8 Nordeste 26 Nordeste 0 979.8 -2.7 19
2018-08-27 16:00:00 32.9 6 Norte 22 Norte 0 980.3 -1.5 27
2018-08-27 15:00:00 31.5 4 Noroeste 18 Noroeste 0 982.8 0.7 28
2018-08-27 14:00:00 32.5 8 Noroeste 17 Noroeste 0 982.5 0.1 26
2018-08-27 13:00:00 33.1 5 Nordeste 18 Nordeste 0 981.8 -0.3 21
2018-08-27 12:00:00 29.8 4 Norte 13 Nordeste 0 982.1 0.9 26
2018-08-27 11:00:00 25.9 3 Noroeste 10 Norte 0 982.4 2.2 32
2018-08-27 10:00:00 22.5 2 Noroeste 8 Sudoeste 0 982.1 1.8 38
2018-08-27 09:00:00 18.2 2 Noroeste 8 Sudoeste 0 981.2 0.7 52
2018-08-27 08:00:00 19 3 Nordeste 6 Nordeste 0 980.2 -0.6 49
2018-08-27 07:00:00 18.5 0 Calma 5 Nordeste 0 980.3 -0.6 46
2018-08-27 06:00:00 19.1 0 Calma 5 Nordeste 0 980.5 -0.6 41
2018-08-27 05:00:00 19.7 2 Nordeste 7 Norte 0 980.8 -0.5 52
2018-08-27 04:00:00 20.3 4 Sudeste 9 Sudeste 0 980.9 -0.4 30
2018-08-27 03:00:00 21.4 0 Calma 3 Este 0 981.1 0.1 43
2018-08-27 02:00:00 22.3 0 Calma 13 Noroeste 0 981.3 0.3 47
2018-08-27 01:00:00 25.4 7 Sudeste 11 Sudeste 0 981.3 0.9 20
2018-08-27 00:00:00 26 6 Sudeste 12 Sudeste 0 981 0.9 23
2018-08-26 23:00:00 27.2 5 Sudeste 7 Sudeste 0 981 0.9 23
2018-08-26 22:00:00 28.7 2 Sudeste 5 Noroeste 0 980.4 0.2 24
2018-08-26 21:00:00 31.5 3 Oeste 19 Noroeste 0 980.1 -0.1 20
2018-08-26 20:00:00 35.1 8 Noroeste 23 Noroeste 0 980.1 -0.5 15
2018-08-26 19:00:00 36.3 9 Noroeste 22 Noroeste 0 980.2 -0.9 13
2018-08-26 18:00:00 36.5 10 Noroeste 23 Noroeste 0 980.2 -1.7 13
2018-08-26 17:00:00 36.8 8 Noroeste 25 Noroeste 0 980.6 -1.6 13
2018-08-26 16:00:00 36.3 9 Oeste 27 Noroeste 0 981.1 -1.5 13
2018-08-26 15:00:00 34.7 6 Noroeste 14 Noroeste 0 981.9 -1 15
2018-08-26 14:00:00 32.9 5 Norte 13 Norte 0 982.2 -0.6 19
2018-08-26 13:00:00 30.3 5 Norte 13 Norte 0 982.6 0.1 28
2018-08-26 12:00:00 28 4 Norte 8 Noroeste 0 982.9 0.7 32
2018-08-26 11:00:00 25.1 4 Norte 8 Norte 0 982.8 1.2 41
2018-08-26 10:00:00 22.6 3 Sur 8 Sur 0 982.5 1.2 44
2018-08-26 09:00:00 18.2 3 Sudeste 5 Sudeste 0 982.2 1 47
2018-08-26 08:00:00 18.2 3 Sudoeste 9 Sudoeste 0 981.6 0.5 52
2018-08-26 07:00:00 19 5 Sudoeste 13 Sudoeste 0 981.3 0.2 51
2018-08-26 06:00:00 19.8 4 Sudoeste 10 Sudoeste 0 981.2 -0.1 48
2018-08-26 05:00:00 21.2 6 Sudoeste 14 Oeste 0 981.1 -0.3 39
2018-08-26 04:00:00 21.9 6 Sudoeste 10 Sudoeste 0 981.1 -0.3 33
2018-08-26 03:00:00 22.7 6 Sudoeste 13 Sudoeste 0 981.3 0.4 30
2018-08-26 02:00:00 24.3 6 Sudoeste 11 Sur 0 981.4 0.9 23
2018-08-26 01:00:00 24.3 6 Sudoeste 10 Sudeste 0 981.4 1.7 23
2018-08-26 00:00:00 24.7 2 Sur 9 Noroeste 0 980.9 1.6 30
2018-08-25 23:00:00 26.5 0 Calma 13 Noroeste 0 980.5 1.3 25
2018-08-25 22:00:00 28.4 4 Oeste 8 Noroeste 0 979.7 0.4 23
2018-08-25 21:00:00 31.5 4 Oeste 15 Noroeste 0 979.3 -0.4 20
2018-08-25 20:00:00 35.5 6 Oeste 23 Oeste 0 979.2 -1 14
2018-08-25 19:00:00 37.3 7 Oeste 26 Oeste 0 979.3 -1.6 13
2018-08-25 18:00:00 37.5 9 Oeste 24 Sudoeste 0 979.7 -1.8 11
2018-08-25 17:00:00 37.9 9 Oeste 23 Oeste 0 980.2 -2 10
2018-08-25 16:00:00 37.2 9 Oeste 19 Oeste 0 980.9 -2 11
2018-08-25 15:00:00 35.9 7 Oeste 15 Noroeste 0 981.5 -1.8 12
2018-08-25 14:00:00 34.2 5 Oeste 15 Sudoeste 0 982.2 -1.2 19
2018-08-25 13:00:00 32 5 Sudoeste 12 Oeste 0 982.9 -0.4 17
2018-08-25 12:00:00 29.3 3 Oeste 10 Sudoeste 0 983.3 0.3 21
2018-08-25 11:00:00 26.2 4 Oeste 10 Sudoeste 0 983.4 0.6 28
2018-08-25 10:00:00 23.9 5 Sudoeste 12 Sudoeste 0 983.3 0.8 34
2018-08-25 09:00:00 20.6 6 Sudoeste 11 Sudoeste 0 983 0.4 38
2018-08-25 08:00:00 19.7 6 Sudoeste 10 Sudoeste 0 982.8 0 39
2018-08-25 07:00:00 20.8 6 Sudoeste 11 Sudoeste 0 982.5 -0.4 37
2018-08-25 06:00:00 21.8 7 Sudoeste 12 Oeste 0 982.6 -0.5 31
2018-08-25 05:00:00 21.8 4 Sur 8 Sur 0 982.8 -0.3 36
2018-08-25 04:00:00 21.9 3 Sur 9 Oeste 0 982.9 -0.1 37
2018-08-25 03:00:00 22.4 5 Sudoeste 10 Sudoeste 0 983.1 0.2 44
2018-08-25 02:00:00 24.1 2 Sur 7 Sudoeste 0 983.1 0.4 34
2018-08-25 01:00:00 25.6 3 Sur 10 Norte 0 983 0.7 31
2018-08-25 00:00:00 27.2 4 Norte 12 Norte 0 982.9 0.9 29
2018-08-24 23:00:00 28.7 5 Norte 10 Noroeste 0 982.7 0.7 33
2018-08-24 22:00:00 30.1 4 Oeste 10 Oeste 0 982.3 -0.1 32
2018-08-24 21:00:00 32.1 2 Sudoeste 8 Oeste 0 982 -0.6 29
2018-08-24 20:00:00 34.9 3 Sudoeste 9 Oeste 0 982 -1.1 24
2018-08-24 19:00:00 35.5 4 Sudoeste 17 Oeste 0 982.4 -1.6 21
2018-08-24 18:00:00 37.9 5 Oeste 15 Oeste 0 982.6 -2 17
2018-08-24 17:00:00 38.5 6 Sudoeste 14 Sudoeste 0 983.1 -2 14
2018-08-24 16:00:00 36.9 5 Oeste 15 Oeste 0 984 -1.7 19
2018-08-24 15:00:00 35.3 5 Noroeste 15 Oeste 0 984.6 -1.2 23
2018-08-24 14:00:00 34.3 6 Oeste 13 Sudoeste 0 985.1 -0.7 23
2018-08-24 13:00:00 30.8 6 Noroeste 14 Norte 0 985.7 0.2 30
2018-08-24 12:00:00 30.5 2 Sudeste 13 Norte 0 985.8 0.6 37
2018-08-24 11:00:00 26.5 5 Oeste 17 Oeste 0 985.8 1 47
2018-08-24 10:00:00 24.1 8 Oeste 16 Oeste 0 985.5 1.2 54
2018-08-24 09:00:00 21.1 7 Sudoeste 16 Sudoeste 0 985.2 1 64
2018-08-24 08:00:00 21.4 10 Oeste 19 Oeste 0 984.8 0.5 58
2018-08-24 07:00:00 21.4 3 Noroeste 9 Sudoeste 0 984.3 -0.1 62
2018-08-24 06:00:00 22.5 5 Sudoeste 12 Sudoeste 0 984.2 -0.3 53
2018-08-24 05:00:00 22.9 6 Sudoeste 12 Sudoeste 0 984.3 -0.3 52
2018-08-24 04:00:00 23.7 5 Sudoeste 10 Sudoeste 0 984.4 -0.1 46
2018-08-24 03:00:00 24 5 Sudoeste 12 Sudoeste 0 984.5 0 48
2018-08-24 02:00:00 24.8 5 Sudoeste 8 Sudoeste 0 984.6 0.2 46
2018-08-24 01:00:00 25.7 3 Sur 10 Sudoeste 0 984.5 0.7 43
2018-08-24 00:00:00 26.9 5 Sudoeste 12 Oeste 0 984.5 1.5 40